sensor_id;sensor_type;location;lat;lon;timestamp;P1;durP1;ratioP1;P2;durP2;ratioP2
19221;SDS011;9745;50.828;4.378;2023-05-31T00:00:47;7.03;;;5.30;;
19221;SDS011;9745;50.828;4.378;2023-05-31T00:03:13;8.30;;;5.33;;
19221;SDS011;9745;50.828;4.378;2023-05-31T00:05:39;10.00;;;5.87;;
19221;SDS011;9745;50.828;4.378;2023-05-31T00:08:05;9.30;;;5.87;;
19221;SDS011;9745;50.828;4.378;2023-05-31T00:10:31;7.50;;;5.50;;
19221;SDS011;9745;50.828;4.378;2023-05-31T00:12:57;7.97;;;5.47;;
19221;SDS011;9745;50.828;4.378;2023-05-31T00:15:24;10.10;;;6.40;;
19221;SDS011;9745;50.828;4.378;2023-05-31T00:17:50;9.63;;;6.00;;
19221;SDS011;9745;50.828;4.378;2023-05-31T00:20:16;6.40;;;4.90;;
19221;SDS011;9745;50.828;4.378;2023-05-31T00:22:42;7.43;;;5.63;;
19221;SDS011;9745;50.828;4.378;2023-05-31T00:25:08;7.90;;;5.20;;
19221;SDS011;9745;50.828;4.378;2023-05-31T00:27:34;7.27;;;5.37;;
19221;SDS011;9745;50.828;4.378;2023-05-31T00:30:00;8.97;;;5.90;;
19221;SDS011;9745;50.828;4.378;2023-05-31T00:32:26;8.03;;;5.80;;
19221;SDS011;9745;50.828;4.378;2023-05-31T00:34:52;9.97;;;6.23;;
19221;SDS011;9745;50.828;4.378;2023-05-31T00:37:18;9.50;;;6.70;;
19221;SDS011;9745;50.828;4.378;2023-05-31T00:39:44;6.47;;;5.53;;
19221;SDS011;9745;50.828;4.378;2023-05-31T00:42:10;10.07;;;6.00;;
19221;SDS011;9745;50.828;4.378;2023-05-31T00:44:36;9.43;;;6.10;;
19221;SDS011;9745;50.828;4.378;2023-05-31T00:47:02;7.20;;;5.77;;
19221;SDS011;9745;50.828;4.378;2023-05-31T00:49:28;9.20;;;5.70;;
19221;SDS011;9745;50.828;4.378;2023-05-31T00:51:54;8.07;;;6.10;;
19221;SDS011;9745;50.828;4.378;2023-05-31T00:54:21;7.57;;;6.13;;
19221;SDS011;9745;50.828;4.378;2023-05-31T00:56:47;8.70;;;6.37;;
19221;SDS011;9745;50.828;4.378;2023-05-31T00:59:13;7.37;;;6.33;;
19221;SDS011;9745;50.828;4.378;2023-05-31T01:01:41;6.97;;;5.47;;
19221;SDS011;9745;50.828;4.378;2023-05-31T01:04:07;7.17;;;5.70;;
19221;SDS011;9745;50.828;4.378;2023-05-31T01:06:34;8.73;;;5.67;;
19221;SDS011;9745;50.828;4.378;2023-05-31T01:09:00;8.90;;;6.30;;
19221;SDS011;9745;50.828;4.378;2023-05-31T01:14:01;6.87;;;5.27;;
19221;SDS011;9745;50.828;4.378;2023-05-31T01:16:32;7.97;;;6.10;;
19221;SDS011;9745;50.828;4.378;2023-05-31T01:19:01;8.50;;;6.27;;
19221;SDS011;9745;50.828;4.378;2023-05-31T01:21:32;7.73;;;5.80;;
19221;SDS011;9745;50.828;4.378;2023-05-31T01:24:08;9.53;;;5.87;;
19221;SDS011;9745;50.828;4.378;2023-05-31T01:26:44;9.23;;;6.07;;
19221;SDS011;9745;50.828;4.378;2023-05-31T01:29:17;8.47;;;6.73;;
19221;SDS011;9745;50.828;4.378;2023-05-31T01:31:44;7.43;;;6.20;;
19221;SDS011;9745;50.828;4.378;2023-05-31T01:34:11;11.17;;;7.10;;
19221;SDS011;9745;50.828;4.378;2023-05-31T01:36:37;9.50;;;6.70;;
19221;SDS011;9745;50.828;4.378;2023-05-31T01:39:03;8.77;;;6.87;;
19221;SDS011;9745;50.828;4.378;2023-05-31T01:41:33;10.27;;;6.67;;
19221;SDS011;9745;50.828;4.378;2023-05-31T01:44:02;7.67;;;6.23;;
19221;SDS011;9745;50.828;4.378;2023-05-31T01:46:28;7.87;;;6.77;;
19221;SDS011;9745;50.828;4.378;2023-05-31T01:48:54;9.27;;;6.40;;
19221;SDS011;9745;50.828;4.378;2023-05-31T01:51:20;9.17;;;7.40;;
19221;SDS011;9745;50.828;4.378;2023-05-31T01:53:46;10.70;;;6.67;;
19221;SDS011;9745;50.828;4.378;2023-05-31T01:56:13;8.80;;;6.63;;
19221;SDS011;9745;50.828;4.378;2023-05-31T01:58:40;11.10;;;7.67;;
19221;SDS011;9745;50.828;4.378;2023-05-31T02:01:07;7.37;;;6.47;;
19221;SDS011;9745;50.828;4.378;2023-05-31T02:03:33;8.57;;;6.50;;
19221;SDS011;9745;50.828;4.378;2023-05-31T02:06:00;10.00;;;6.50;;
19221;SDS011;9745;50.828;4.378;2023-05-31T02:08:26;8.37;;;6.90;;
19221;SDS011;9745;50.828;4.378;2023-05-31T02:10:53;9.80;;;7.53;;
19221;SDS011;9745;50.828;4.378;2023-05-31T02:13:19;11.40;;;6.83;;
19221;SDS011;9745;50.828;4.378;2023-05-31T02:15:46;8.50;;;7.20;;
19221;SDS011;9745;50.828;4.378;2023-05-31T02:18:12;13.57;;;7.47;;
19221;SDS011;9745;50.828;4.378;2023-05-31T02:20:41;11.07;;;7.33;;
19221;SDS011;9745;50.828;4.378;2023-05-31T02:23:07;11.17;;;7.73;;
19221;SDS011;9745;50.828;4.378;2023-05-31T02:25:33;11.73;;;6.87;;
19221;SDS011;9745;50.828;4.378;2023-05-31T02:27:59;11.13;;;7.90;;
19221;SDS011;9745;50.828;4.378;2023-05-31T02:30:29;9.80;;;7.57;;
19221;SDS011;9745;50.828;4.378;2023-05-31T02:32:55;11.87;;;7.63;;
19221;SDS011;9745;50.828;4.378;2023-05-31T02:35:21;11.47;;;8.40;;
19221;SDS011;9745;50.828;4.378;2023-05-31T02:37:47;10.23;;;7.47;;
19221;SDS011;9745;50.828;4.378;2023-05-31T02:40:13;10.17;;;7.00;;
19221;SDS011;9745;50.828;4.378;2023-05-31T02:42:40;11.33;;;7.43;;
19221;SDS011;9745;50.828;4.378;2023-05-31T02:45:06;9.20;;;7.53;;
19221;SDS011;9745;50.828;4.378;2023-05-31T02:47:33;13.27;;;8.27;;
19221;SDS011;9745;50.828;4.378;2023-05-31T02:49:59;11.33;;;8.57;;
19221;SDS011;9745;50.828;4.378;2023-05-31T02:52:25;8.90;;;7.40;;
19221;SDS011;9745;50.828;4.378;2023-05-31T02:54:51;12.80;;;7.73;;
19221;SDS011;9745;50.828;4.378;2023-05-31T02:57:17;9.43;;;7.67;;
19221;SDS011;9745;50.828;4.378;2023-05-31T02:59:43;10.90;;;8.20;;
19221;SDS011;9745;50.828;4.378;2023-05-31T03:02:10;9.27;;;8.10;;
19221;SDS011;9745;50.828;4.378;2023-05-31T03:04:36;11.43;;;8.40;;
19221;SDS011;9745;50.828;4.378;2023-05-31T03:07:02;11.57;;;8.00;;
19221;SDS011;9745;50.828;4.378;2023-05-31T03:09:28;13.27;;;7.47;;
19221;SDS011;9745;50.828;4.378;2023-05-31T03:11:54;10.40;;;7.93;;
19221;SDS011;9745;50.828;4.378;2023-05-31T03:14:20;12.13;;;8.70;;
19221;SDS011;9745;50.828;4.378;2023-05-31T03:16:46;13.10;;;9.13;;
19221;SDS011;9745;50.828;4.378;2023-05-31T03:19:12;10.80;;;8.63;;
19221;SDS011;9745;50.828;4.378;2023-05-31T03:21:38;10.60;;;8.87;;
19221;SDS011;9745;50.828;4.378;2023-05-31T03:24:04;13.50;;;8.77;;
19221;SDS011;9745;50.828;4.378;2023-05-31T03:26:30;10.90;;;8.30;;
19221;SDS011;9745;50.828;4.378;2023-05-31T03:28:56;13.97;;;8.77;;
19221;SDS011;9745;50.828;4.378;2023-05-31T03:31:22;11.10;;;8.87;;
19221;SDS011;9745;50.828;4.378;2023-05-31T03:33:50;11.67;;;9.03;;
19221;SDS011;9745;50.828;4.378;2023-05-31T03:36:16;13.77;;;9.40;;
19221;SDS011;9745;50.828;4.378;2023-05-31T03:38:42;13.13;;;9.33;;
19221;SDS011;9745;50.828;4.378;2023-05-31T03:41:08;11.00;;;9.07;;
19221;SDS011;9745;50.828;4.378;2023-05-31T03:43:34;10.80;;;8.37;;
19221;SDS011;9745;50.828;4.378;2023-05-31T03:46:00;11.07;;;9.20;;
19221;SDS011;9745;50.828;4.378;2023-05-31T03:48:27;13.37;;;9.47;;
19221;SDS011;9745;50.828;4.378;2023-05-31T03:50:53;10.60;;;8.47;;
19221;SDS011;9745;50.828;4.378;2023-05-31T03:53:19;13.97;;;9.70;;
19221;SDS011;9745;50.828;4.378;2023-05-31T03:55:45;12.70;;;9.73;;
19221;SDS011;9745;50.828;4.378;2023-05-31T03:58:11;15.10;;;9.63;;
19221;SDS011;9745;50.828;4.378;2023-05-31T04:00:37;12.67;;;9.27;;
19221;SDS011;9745;50.828;4.378;2023-05-31T04:03:03;14.87;;;9.40;;
19221;SDS011;9745;50.828;4.378;2023-05-31T04:05:29;13.27;;;9.80;;
19221;SDS011;9745;50.828;4.378;2023-05-31T04:07:55;12.77;;;9.73;;
19221;SDS011;9745;50.828;4.378;2023-05-31T04:10:22;14.13;;;9.50;;
19221;SDS011;9745;50.828;4.378;2023-05-31T04:12:48;12.63;;;10.17;;
19221;SDS011;9745;50.828;4.378;2023-05-31T04:15:14;11.83;;;9.97;;
19221;SDS011;9745;50.828;4.378;2023-05-31T04:17:40;15.63;;;9.97;;
19221;SDS011;9745;50.828;4.378;2023-05-31T04:20:06;14.93;;;9.00;;
19221;SDS011;9745;50.828;4.378;2023-05-31T04:22:33;12.70;;;8.77;;
19221;SDS011;9745;50.828;4.378;2023-05-31T04:25:00;14.50;;;10.30;;
19221;SDS011;9745;50.828;4.378;2023-05-31T04:27:26;11.63;;;9.80;;
19221;SDS011;9745;50.828;4.378;2023-05-31T04:29:52;11.93;;;9.30;;
19221;SDS011;9745;50.828;4.378;2023-05-31T04:32:19;15.10;;;10.47;;
19221;SDS011;9745;50.828;4.378;2023-05-31T04:34:46;12.37;;;9.90;;
19221;SDS011;9745;50.828;4.378;2023-05-31T04:37:13;15.03;;;10.43;;
19221;SDS011;9745;50.828;4.378;2023-05-31T04:39:39;11.47;;;9.20;;
19221;SDS011;9745;50.828;4.378;2023-05-31T04:42:05;13.93;;;9.93;;
19221;SDS011;9745;50.828;4.378;2023-05-31T04:44:36;14.80;;;10.33;;
19221;SDS011;9745;50.828;4.378;2023-05-31T04:47:03;12.73;;;10.33;;
19221;SDS011;9745;50.828;4.378;2023-05-31T04:49:29;13.27;;;10.87;;
19221;SDS011;9745;50.828;4.378;2023-05-31T04:51:55;14.67;;;10.50;;
19221;SDS011;9745;50.828;4.378;2023-05-31T04:54:21;14.93;;;11.10;;
19221;SDS011;9745;50.828;4.378;2023-05-31T04:56:48;14.83;;;10.73;;
19221;SDS011;9745;50.828;4.378;2023-05-31T04:59:13;14.33;;;11.13;;
19221;SDS011;9745;50.828;4.378;2023-05-31T05:01:39;18.03;;;11.97;;
19221;SDS011;9745;50.828;4.378;2023-05-31T05:04:06;13.73;;;10.87;;
19221;SDS011;9745;50.828;4.378;2023-05-31T05:06:32;16.20;;;10.80;;
19221;SDS011;9745;50.828;4.378;2023-05-31T05:08:58;13.97;;;10.73;;
19221;SDS011;9745;50.828;4.378;2023-05-31T05:11:24;14.60;;;10.50;;
19221;SDS011;9745;50.828;4.378;2023-05-31T05:13:50;14.60;;;10.80;;
19221;SDS011;9745;50.828;4.378;2023-05-31T05:16:16;18.30;;;11.03;;
19221;SDS011;9745;50.828;4.378;2023-05-31T05:18:42;13.97;;;11.27;;
19221;SDS011;9745;50.828;4.378;2023-05-31T05:21:08;13.40;;;10.70;;
19221;SDS011;9745;50.828;4.378;2023-05-31T05:23:34;16.63;;;12.27;;
19221;SDS011;9745;50.828;4.378;2023-05-31T05:26:02;15.77;;;11.77;;
19221;SDS011;9745;50.828;4.378;2023-05-31T05:28:29;17.63;;;11.10;;
19221;SDS011;9745;50.828;4.378;2023-05-31T05:30:55;16.77;;;12.40;;
19221;SDS011;9745;50.828;4.378;2023-05-31T05:33:21;15.43;;;12.13;;
19221;SDS011;9745;50.828;4.378;2023-05-31T05:35:47;16.30;;;11.33;;
19221;SDS011;9745;50.828;4.378;2023-05-31T05:38:13;16.27;;;11.77;;
19221;SDS011;9745;50.828;4.378;2023-05-31T05:40:39;15.00;;;11.83;;
19221;SDS011;9745;50.828;4.378;2023-05-31T05:43:05;14.33;;;11.17;;
19221;SDS011;9745;50.828;4.378;2023-05-31T05:45:31;16.23;;;11.20;;
19221;SDS011;9745;50.828;4.378;2023-05-31T05:47:57;14.87;;;11.13;;
19221;SDS011;9745;50.828;4.378;2023-05-31T05:50:23;16.77;;;11.10;;
19221;SDS011;9745;50.828;4.378;2023-05-31T05:52:49;13.37;;;9.97;;
19221;SDS011;9745;50.828;4.378;2023-05-31T05:55:15;15.23;;;8.67;;
19221;SDS011;9745;50.828;4.378;2023-05-31T05:57:41;10.87;;;8.27;;
19221;SDS011;9745;50.828;4.378;2023-05-31T06:00:07;9.00;;;7.50;;
19221;SDS011;9745;50.828;4.378;2023-05-31T06:02:35;11.47;;;7.40;;
19221;SDS011;9745;50.828;4.378;2023-05-31T06:05:01;12.10;;;8.63;;
19221;SDS011;9745;50.828;4.378;2023-05-31T06:07:27;10.77;;;8.20;;
19221;SDS011;9745;50.828;4.378;2023-05-31T06:09:54;12.67;;;8.50;;
19221;SDS011;9745;50.828;4.378;2023-05-31T06:12:21;10.67;;;8.37;;
19221;SDS011;9745;50.828;4.378;2023-05-31T06:14:47;15.47;;;8.97;;
19221;SDS011;9745;50.828;4.378;2023-05-31T06:17:13;13.93;;;8.60;;
19221;SDS011;9745;50.828;4.378;2023-05-31T06:19:40;12.23;;;9.23;;
19221;SDS011;9745;50.828;4.378;2023-05-31T06:22:06;10.40;;;8.47;;
19221;SDS011;9745;50.828;4.378;2023-05-31T06:24:32;12.47;;;9.20;;
19221;SDS011;9745;50.828;4.378;2023-05-31T06:26:58;12.47;;;8.30;;
19221;SDS011;9745;50.828;4.378;2023-05-31T06:29:24;11.33;;;8.83;;
19221;SDS011;9745;50.828;4.378;2023-05-31T06:31:50;11.83;;;8.57;;
19221;SDS011;9745;50.828;4.378;2023-05-31T06:34:16;12.60;;;8.23;;
19221;SDS011;9745;50.828;4.378;2023-05-31T06:36:42;15.07;;;8.93;;
19221;SDS011;9745;50.828;4.378;2023-05-31T06:39:08;10.90;;;8.03;;
19221;SDS011;9745;50.828;4.378;2023-05-31T06:41:34;10.67;;;8.13;;
19221;SDS011;9745;50.828;4.378;2023-05-31T06:44:01;11.70;;;8.03;;
19221;SDS011;9745;50.828;4.378;2023-05-31T06:46:28;9.67;;;7.33;;
19221;SDS011;9745;50.828;4.378;2023-05-31T06:48:54;10.80;;;7.70;;
19221;SDS011;9745;50.828;4.378;2023-05-31T06:51:20;16.23;;;8.50;;
19221;SDS011;9745;50.828;4.378;2023-05-31T06:53:48;10.40;;;7.07;;
19221;SDS011;9745;50.828;4.378;2023-05-31T06:56:14;10.73;;;7.10;;
19221;SDS011;9745;50.828;4.378;2023-05-31T06:58:40;11.23;;;7.40;;
19221;SDS011;9745;50.828;4.378;2023-05-31T07:01:06;10.30;;;6.50;;
19221;SDS011;9745;50.828;4.378;2023-05-31T07:03:32;10.47;;;6.83;;
19221;SDS011;9745;50.828;4.378;2023-05-31T07:05:58;11.70;;;7.00;;
19221;SDS011;9745;50.828;4.378;2023-05-31T07:08:24;9.83;;;7.30;;
19221;SDS011;9745;50.828;4.378;2023-05-31T07:10:50;9.97;;;6.60;;
19221;SDS011;9745;50.828;4.378;2023-05-31T07:13:16;8.47;;;6.70;;
19221;SDS011;9745;50.828;4.378;2023-05-31T07:15:42;11.13;;;7.47;;
19221;SDS011;9745;50.828;4.378;2023-05-31T07:18:09;13.10;;;7.00;;
19221;SDS011;9745;50.828;4.378;2023-05-31T07:20:35;8.97;;;6.77;;
19221;SDS011;9745;50.828;4.378;2023-05-31T07:23:01;10.77;;;7.07;;
19221;SDS011;9745;50.828;4.378;2023-05-31T07:25:27;11.60;;;7.40;;
19221;SDS011;9745;50.828;4.378;2023-05-31T07:27:53;13.57;;;7.00;;
19221;SDS011;9745;50.828;4.378;2023-05-31T07:30:19;11.13;;;6.73;;
19221;SDS011;9745;50.828;4.378;2023-05-31T07:32:45;9.13;;;6.90;;
19221;SDS011;9745;50.828;4.378;2023-05-31T07:35:11;9.27;;;6.90;;
19221;SDS011;9745;50.828;4.378;2023-05-31T07:37:37;13.03;;;6.90;;
19221;SDS011;9745;50.828;4.378;2023-05-31T07:40:03;10.80;;;6.27;;
19221;SDS011;9745;50.828;4.378;2023-05-31T07:42:32;9.13;;;7.07;;
19221;SDS011;9745;50.828;4.378;2023-05-31T07:44:58;15.23;;;7.30;;
19221;SDS011;9745;50.828;4.378;2023-05-31T07:47:24;9.20;;;6.40;;
19221;SDS011;9745;50.828;4.378;2023-05-31T07:49:51;12.97;;;6.83;;
19221;SDS011;9745;50.828;4.378;2023-05-31T07:52:17;10.23;;;6.50;;
19221;SDS011;9745;50.828;4.378;2023-05-31T07:54:49;8.07;;;6.37;;
19221;SDS011;9745;50.828;4.378;2023-05-31T07:57:16;8.30;;;6.43;;
19221;SDS011;9745;50.828;4.378;2023-05-31T07:59:42;12.13;;;6.50;;
19221;SDS011;9745;50.828;4.378;2023-05-31T08:02:08;10.13;;;6.77;;
19221;SDS011;9745;50.828;4.378;2023-05-31T08:04:35;8.18;;;6.53;;
19221;SDS011;9745;50.828;4.378;2023-05-31T08:07:01;10.65;;;6.63;;
19221;SDS011;9745;50.828;4.378;2023-05-31T08:09:27;7.00;;;5.65;;
19221;SDS011;9745;50.828;4.378;2023-05-31T08:11:53;9.18;;;6.88;;
19221;SDS011;9745;50.828;4.378;2023-05-31T08:14:20;10.77;;;6.28;;
19221;SDS011;9745;50.828;4.378;2023-05-31T08:16:45;9.23;;;6.15;;
19221;SDS011;9745;50.828;4.378;2023-05-31T08:19:14;11.30;;;6.05;;
19221;SDS011;9745;50.828;4.378;2023-05-31T08:21:40;11.35;;;6.70;;
19221;SDS011;9745;50.828;4.378;2023-05-31T08:24:07;10.30;;;7.05;;
19221;SDS011;9745;50.828;4.378;2023-05-31T08:26:33;8.27;;;6.47;;
19221;SDS011;9745;50.828;4.378;2023-05-31T08:28:59;10.52;;;6.40;;
19221;SDS011;9745;50.828;4.378;2023-05-31T08:31:25;9.70;;;6.13;;
19221;SDS011;9745;50.828;4.378;2023-05-31T08:33:56;11.15;;;6.57;;
19221;SDS011;9745;50.828;4.378;2023-05-31T08:36:22;9.90;;;6.10;;
19221;SDS011;9745;50.828;4.378;2023-05-31T08:38:49;10.07;;;6.32;;
19221;SDS011;9745;50.828;4.378;2023-05-31T08:41:15;10.70;;;6.55;;
19221;SDS011;9745;50.828;4.378;2023-05-31T08:43:41;12.07;;;6.10;;
19221;SDS011;9745;50.828;4.378;2023-05-31T08:46:07;10.32;;;5.88;;
19221;SDS011;9745;50.828;4.378;2023-05-31T08:48:43;10.63;;;5.72;;
19221;SDS011;9745;50.828;4.378;2023-05-31T08:51:10;9.90;;;5.88;;
19221;SDS011;9745;50.828;4.378;2023-05-31T08:53:38;11.32;;;5.68;;
19221;SDS011;9745;50.828;4.378;2023-05-31T08:56:04;9.32;;;5.35;;
19221;SDS011;9745;50.828;4.378;2023-05-31T08:58:30;9.43;;;6.03;;
19221;SDS011;9745;50.828;4.378;2023-05-31T09:00:57;8.15;;;5.25;;
19221;SDS011;9745;50.828;4.378;2023-05-31T09:03:23;11.48;;;6.20;;
19221;SDS011;9745;50.828;4.378;2023-05-31T09:05:49;10.07;;;5.38;;
19221;SDS011;9745;50.828;4.378;2023-05-31T09:08:16;8.57;;;5.00;;
19221;SDS011;9745;50.828;4.378;2023-05-31T09:10:42;9.02;;;5.40;;
19221;SDS011;9745;50.828;4.378;2023-05-31T09:13:08;9.52;;;5.43;;
19221;SDS011;9745;50.828;4.378;2023-05-31T09:15:37;11.95;;;5.90;;
19221;SDS011;9745;50.828;4.378;2023-05-31T09:18:13;10.80;;;6.18;;
19221;SDS011;9745;50.828;4.378;2023-05-31T09:20:40;7.35;;;5.35;;
19221;SDS011;9745;50.828;4.378;2023-05-31T09:23:07;8.20;;;5.00;;
19221;SDS011;9745;50.828;4.378;2023-05-31T09:25:43;8.10;;;4.78;;
19221;SDS011;9745;50.828;4.378;2023-05-31T09:28:10;7.97;;;4.40;;
19221;SDS011;9745;50.828;4.378;2023-05-31T09:30:36;7.00;;;4.78;;
19221;SDS011;9745;50.828;4.378;2023-05-31T09:33:02;8.55;;;4.45;;
19221;SDS011;9745;50.828;4.378;2023-05-31T09:35:28;8.88;;;4.68;;
19221;SDS011;9745;50.828;4.378;2023-05-31T09:37:54;11.25;;;5.35;;
19221;SDS011;9745;50.828;4.378;2023-05-31T09:42:48;8.70;;;4.55;;
19221;SDS011;9745;50.828;4.378;2023-05-31T09:45:14;7.70;;;4.32;;
19221;SDS011;9745;50.828;4.378;2023-05-31T09:47:40;8.48;;;5.28;;
19221;SDS011;9745;50.828;4.378;2023-05-31T09:50:10;8.80;;;4.65;;
19221;SDS011;9745;50.828;4.378;2023-05-31T09:52:36;10.95;;;5.65;;
19221;SDS011;9745;50.828;4.378;2023-05-31T09:55:07;7.22;;;5.28;;
19221;SDS011;9745;50.828;4.378;2023-05-31T09:57:34;10.00;;;4.85;;
19221;SDS011;9745;50.828;4.378;2023-05-31T10:00:05;8.15;;;4.57;;
19221;SDS011;9745;50.828;4.378;2023-05-31T10:02:39;7.68;;;4.07;;
19221;SDS011;9745;50.828;4.378;2023-05-31T10:05:07;8.77;;;4.75;;
19221;SDS011;9745;50.828;4.378;2023-05-31T10:07:34;7.53;;;5.13;;
19221;SDS011;9745;50.828;4.378;2023-05-31T10:10:00;10.40;;;5.35;;
19221;SDS011;9745;50.828;4.378;2023-05-31T10:12:26;7.97;;;4.63;;
19221;SDS011;9745;50.828;4.378;2023-05-31T10:15:00;11.60;;;4.40;;
19221;SDS011;9745;50.828;4.378;2023-05-31T10:17:28;8.17;;;4.20;;
19221;SDS011;9745;50.828;4.378;2023-05-31T10:19:57;12.43;;;4.33;;
19221;SDS011;9745;50.828;4.378;2023-05-31T10:22:26;7.97;;;4.13;;
19221;SDS011;9745;50.828;4.378;2023-05-31T10:24:59;9.20;;;4.20;;
19221;SDS011;9745;50.828;4.378;2023-05-31T10:27:27;8.17;;;4.70;;
19221;SDS011;9745;50.828;4.378;2023-05-31T10:29:55;12.47;;;4.60;;
19221;SDS011;9745;50.828;4.378;2023-05-31T10:32:25;9.57;;;4.73;;
19221;SDS011;9745;50.828;4.378;2023-05-31T10:34:52;11.20;;;4.37;;
19221;SDS011;9745;50.828;4.378;2023-05-31T10:37:18;9.57;;;4.33;;
19221;SDS011;9745;50.828;4.378;2023-05-31T10:39:53;11.30;;;3.63;;
19221;SDS011;9745;50.828;4.378;2023-05-31T10:42:36;8.37;;;3.23;;
19221;SDS011;9745;50.828;4.378;2023-05-31T10:50:17;8.93;;;3.60;;
19221;SDS011;9745;50.828;4.378;2023-05-31T10:52:44;7.53;;;3.23;;
19221;SDS011;9745;50.828;4.378;2023-05-31T10:55:21;6.63;;;3.50;;
19221;SDS011;9745;50.828;4.378;2023-05-31T10:57:49;7.67;;;4.43;;
19221;SDS011;9745;50.828;4.378;2023-05-31T11:00:18;8.73;;;3.27;;
19221;SDS011;9745;50.828;4.378;2023-05-31T11:02:48;8.70;;;3.33;;
19221;SDS011;9745;50.828;4.378;2023-05-31T11:05:18;11.27;;;4.03;;
19221;SDS011;9745;50.828;4.378;2023-05-31T11:07:44;8.10;;;3.07;;
19221;SDS011;9745;50.828;4.378;2023-05-31T11:10:10;9.43;;;3.70;;
19221;SDS011;9745;50.828;4.378;2023-05-31T11:12:49;6.70;;;3.03;;
19221;SDS011;9745;50.828;4.378;2023-05-31T11:15:15;8.03;;;3.00;;
19221;SDS011;9745;50.828;4.378;2023-05-31T11:17:54;9.60;;;3.40;;
19221;SDS011;9745;50.828;4.378;2023-05-31T11:20:20;11.67;;;3.50;;
19221;SDS011;9745;50.828;4.378;2023-05-31T11:23:22;7.70;;;2.80;;
19221;SDS011;9745;50.828;4.378;2023-05-31T11:25:35;8.50;;;3.10;;
19221;SDS011;9745;50.828;4.378;2023-05-31T11:28:04;10.90;;;3.20;;
19221;SDS011;9745;50.828;4.378;2023-05-31T11:30:37;8.73;;;3.30;;
19221;SDS011;9745;50.828;4.378;2023-05-31T11:33:13;7.13;;;3.20;;
19221;SDS011;9745;50.828;4.378;2023-05-31T11:35:39;5.27;;;2.80;;
19221;SDS011;9745;50.828;4.378;2023-05-31T11:38:06;6.90;;;2.90;;
19221;SDS011;9745;50.828;4.378;2023-05-31T11:40:32;10.60;;;3.03;;
19221;SDS011;9745;50.828;4.378;2023-05-31T11:43:05;7.63;;;2.83;;
19221;SDS011;9745;50.828;4.378;2023-05-31T11:45:32;7.43;;;2.40;;
19221;SDS011;9745;50.828;4.378;2023-05-31T11:48:13;5.37;;;2.80;;
19221;SDS011;9745;50.828;4.378;2023-05-31T11:50:42;10.10;;;3.23;;
19221;SDS011;9745;50.828;4.378;2023-05-31T11:53:09;7.10;;;3.13;;
19221;SDS011;9745;50.828;4.378;2023-05-31T11:55:35;10.77;;;3.40;;
19221;SDS011;9745;50.828;4.378;2023-05-31T11:58:04;10.20;;;3.00;;
19221;SDS011;9745;50.828;4.378;2023-05-31T12:00:31;6.10;;;2.47;;
19221;SDS011;9745;50.828;4.378;2023-05-31T12:02:57;7.60;;;2.80;;
19221;SDS011;9745;50.828;4.378;2023-05-31T12:05:24;9.30;;;2.90;;
19221;SDS011;9745;50.828;4.378;2023-05-31T12:07:54;11.20;;;3.40;;
19221;SDS011;9745;50.828;4.378;2023-05-31T12:10:20;9.73;;;3.23;;
19221;SDS011;9745;50.828;4.378;2023-05-31T12:12:46;10.20;;;3.17;;
19221;SDS011;9745;50.828;4.378;2023-05-31T12:15:13;10.00;;;3.03;;
19221;SDS011;9745;50.828;4.378;2023-05-31T12:17:39;7.73;;;3.00;;
19221;SDS011;9745;50.828;4.378;2023-05-31T12:20:06;13.23;;;3.40;;
19221;SDS011;9745;50.828;4.378;2023-05-31T12:22:33;6.70;;;3.00;;
19221;SDS011;9745;50.828;4.378;2023-05-31T12:24:59;4.87;;;2.57;;
19221;SDS011;9745;50.828;4.378;2023-05-31T12:27:26;8.57;;;3.00;;
19221;SDS011;9745;50.828;4.378;2023-05-31T12:29:56;6.63;;;3.03;;
19221;SDS011;9745;50.828;4.378;2023-05-31T12:32:22;6.80;;;2.87;;
19221;SDS011;9745;50.828;4.378;2023-05-31T12:34:52;7.73;;;3.00;;
19221;SDS011;9745;50.828;4.378;2023-05-31T12:37:18;7.03;;;3.37;;
19221;SDS011;9745;50.828;4.378;2023-05-31T12:39:45;9.33;;;3.30;;
19221;SDS011;9745;50.828;4.378;2023-05-31T12:42:11;6.30;;;2.60;;
19221;SDS011;9745;50.828;4.378;2023-05-31T12:44:37;6.20;;;2.77;;
19221;SDS011;9745;50.828;4.378;2023-05-31T12:47:06;8.30;;;2.93;;
19221;SDS011;9745;50.828;4.378;2023-05-31T12:49:33;6.83;;;2.63;;
19221;SDS011;9745;50.828;4.378;2023-05-31T12:52:14;10.63;;;3.23;;
19221;SDS011;9745;50.828;4.378;2023-05-31T12:54:40;4.87;;;2.90;;
19221;SDS011;9745;50.828;4.378;2023-05-31T12:57:08;7.20;;;3.43;;
19221;SDS011;9745;50.828;4.378;2023-05-31T12:59:35;8.97;;;3.10;;
19221;SDS011;9745;50.828;4.378;2023-05-31T13:02:02;13.50;;;2.90;;
19221;SDS011;9745;50.828;4.378;2023-05-31T13:04:28;10.73;;;3.77;;
19221;SDS011;9745;50.828;4.378;2023-05-31T13:06:55;6.77;;;3.00;;
19221;SDS011;9745;50.828;4.378;2023-05-31T13:09:22;13.23;;;3.03;;
19221;SDS011;9745;50.828;4.378;2023-05-31T13:11:48;7.67;;;2.90;;
19221;SDS011;9745;50.828;4.378;2023-05-31T13:14:17;9.13;;;2.97;;
19221;SDS011;9745;50.828;4.378;2023-05-31T13:16:44;10.10;;;2.70;;
19221;SDS011;9745;50.828;4.378;2023-05-31T13:19:10;10.03;;;3.00;;
19221;SDS011;9745;50.828;4.378;2023-05-31T13:21:36;8.10;;;2.70;;
19221;SDS011;9745;50.828;4.378;2023-05-31T13:24:03;5.63;;;2.70;;
19221;SDS011;9745;50.828;4.378;2023-05-31T13:26:29;9.87;;;2.53;;
19221;SDS011;9745;50.828;4.378;2023-05-31T13:28:56;12.30;;;2.60;;
19221;SDS011;9745;50.828;4.378;2023-05-31T13:31:24;9.23;;;2.70;;
19221;SDS011;9745;50.828;4.378;2023-05-31T13:33:50;8.03;;;2.97;;
19221;SDS011;9745;50.828;4.378;2023-05-31T13:36:17;7.50;;;2.80;;
19221;SDS011;9745;50.828;4.378;2023-05-31T13:38:44;7.20;;;2.80;;
19221;SDS011;9745;50.828;4.378;2023-05-31T13:41:11;8.03;;;3.10;;
19221;SDS011;9745;50.828;4.378;2023-05-31T13:43:37;8.03;;;3.40;;
19221;SDS011;9745;50.828;4.378;2023-05-31T13:46:03;8.23;;;2.60;;
19221;SDS011;9745;50.828;4.378;2023-05-31T13:48:30;6.67;;;2.90;;
19221;SDS011;9745;50.828;4.378;2023-05-31T13:50:57;6.70;;;2.57;;
19221;SDS011;9745;50.828;4.378;2023-05-31T13:53:23;5.90;;;2.83;;
19221;SDS011;9745;50.828;4.378;2023-05-31T13:55:49;9.70;;;2.67;;
19221;SDS011;9745;50.828;4.378;2023-05-31T13:58:15;6.00;;;2.83;;
19221;SDS011;9745;50.828;4.378;2023-05-31T14:00:42;6.30;;;2.57;;
19221;SDS011;9745;50.828;4.378;2023-05-31T14:03:08;6.40;;;2.53;;
19221;SDS011;9745;50.828;4.378;2023-05-31T14:05:34;6.83;;;2.90;;
19221;SDS011;9745;50.828;4.378;2023-05-31T14:08:00;9.23;;;2.80;;
19221;SDS011;9745;50.828;4.378;2023-05-31T14:10:26;9.33;;;2.63;;
19221;SDS011;9745;50.828;4.378;2023-05-31T14:12:53;7.97;;;2.80;;
19221;SDS011;9745;50.828;4.378;2023-05-31T14:15:19;9.17;;;2.67;;
19221;SDS011;9745;50.828;4.378;2023-05-31T14:17:45;8.33;;;2.63;;
19221;SDS011;9745;50.828;4.378;2023-05-31T14:20:11;5.70;;;2.40;;
19221;SDS011;9745;50.828;4.378;2023-05-31T14:22:37;8.10;;;2.53;;
19221;SDS011;9745;50.828;4.378;2023-05-31T14:25:04;5.37;;;2.20;;
19221;SDS011;9745;50.828;4.378;2023-05-31T14:27:30;8.60;;;2.53;;
19221;SDS011;9745;50.828;4.378;2023-05-31T14:29:56;7.47;;;2.60;;
19221;SDS011;9745;50.828;4.378;2023-05-31T14:32:22;7.17;;;2.30;;
19221;SDS011;9745;50.828;4.378;2023-05-31T14:34:48;8.37;;;2.23;;
19221;SDS011;9745;50.828;4.378;2023-05-31T14:37:15;6.13;;;2.80;;
19221;SDS011;9745;50.828;4.378;2023-05-31T14:39:41;6.03;;;2.30;;
19221;SDS011;9745;50.828;4.378;2023-05-31T14:42:08;5.47;;;2.43;;
19221;SDS011;9745;50.828;4.378;2023-05-31T14:44:34;6.33;;;2.00;;
19221;SDS011;9745;50.828;4.378;2023-05-31T14:47:01;7.30;;;2.47;;
19221;SDS011;9745;50.828;4.378;2023-05-31T14:49:27;8.93;;;2.17;;
19221;SDS011;9745;50.828;4.378;2023-05-31T14:51:53;5.00;;;1.80;;
19221;SDS011;9745;50.828;4.378;2023-05-31T14:54:22;5.00;;;2.27;;
19221;SDS011;9745;50.828;4.378;2023-05-31T14:56:48;9.60;;;2.97;;
19221;SDS011;9745;50.828;4.378;2023-05-31T14:59:14;7.43;;;2.37;;
19221;SDS011;9745;50.828;4.378;2023-05-31T15:01:40;8.27;;;2.67;;